This is the latest recevied weather packets stored in our database for station/object HG6IQI-10. If no packets are shown the sender has not sent any weather packets the latest 10 day(s).
| Time | Temp. | Humidity | Pressure | Rain* | Wind** | Luminosity | Snow |
|---|---|---|---|---|---|---|---|
| 1777575791 | 4.44° C | 50% | 1027.1 hPa | - | - | - | - |
| 1777574891 | 5° C | 48% | 1026.9 hPa | - | - | - | - |
| 1777573991 | 5.56° C | 47% | 1026.8 hPa | - | - | - | - |
| 1777573091 | 6.11° C | 45% | 1026.5 hPa | - | - | - | - |
| 1777572191 | 7.22° C | 42% | 1026.3 hPa | - | - | - | - |
| 1777571290 | 8.33° C | 38% | 1026.2 hPa | - | - | - | - |
| 1777570390 | 9.44° C | 34% | 1026 hPa | - | - | - | - |
| 1777569490 | 11.67° C | 28% | 1025.9 hPa | - | - | - | - |
| 1777568590 | 12.22° C | 25% | 1025.9 hPa | - | - | - | - |
| 1777567690 | 12.78° C | 24% | 1025.8 hPa | - | - | - | - |
| 1777566790 | 12.78° C | 24% | 1025.8 hPa | - | - | - | - |
| 1777564992 | 12.78° C | 23% | 1025.6 hPa | - | - | - | - |
| 1777564092 | 13.33° C | 24% | 1025.7 hPa | - | - | - | - |
| 1777563192 | 12.78° C | 24% | 1025.8 hPa | - | - | - | - |
| 1777562292 | 13.33° C | 24% | 1025.7 hPa | - | - | - | - |
| 1777561392 | 13.33° C | 24% | 1025.9 hPa | - | - | - | - |
| 1777560492 | 13.33° C | 25% | 1025.8 hPa | - | - | - | - |
| 1777559592 | 13.33° C | 23% | 1026 hPa | - | - | - | - |
| 1777558692 | 13.33° C | 24% | 1026 hPa | - | - | - | - |
| 1777557791 | 13.33° C | 23% | 1026.3 hPa | - | - | - | - |
| 1777556891 | 13.33° C | 23% | 1026.4 hPa | - | - | - | - |
| 1777555991 | 13.33° C | 23% | 1026.4 hPa | - | - | - | - |
| 1777555091 | 12.78° C | 23% | 1026.6 hPa | - | - | - | - |
| 1777554191 | 12.78° C | 24% | 1026.8 hPa | - | - | - | - |
| 1777553291 | 12.22° C | 24% | 1027.1 hPa | - | - | - | - |
* Rain since midnight (hover to see other rain measurements)
** Current wind speed in m/s (hover to see current wind gust speed)